Time;durP1;ratioP1;P1;durP2;ratioP2;P2;SDS_P1;SDS_P2;PMS_P1;PMS_P2;Temp;Humidity;BMP_temperature;BMP_pressure;BME280_temperature;BME280_humidity;BME280_pressure;Samples;Min_cycle;Max_cycle;Signal;HPM_P1;HPM_P2
2022/06/01 00:00:30;;;;;;;3.42;1.17;;;12.50;99.90;;;;;;5016681;28;20073;-80
2022/06/01 00:02:56;;;;;;;1.52;1.10;;;12.50;99.90;;;;;;5016423;28;20022;-80
2022/06/01 00:05:25;;;;;;;1.30;1.20;;;12.50;99.90;;;;;;5016505;28;20030;-80
2022/06/01 00:07:51;;;;;;;1.95;1.30;;;12.50;99.90;;;;;;5015007;28;20057;-80
2022/06/01 00:10:17;;;;;;;2.22;1.50;;;12.50;99.90;;;;;;5016311;28;20825;-80
2022/06/01 00:12:44;;;;;;;2.63;1.40;;;12.50;99.90;;;;;;5016180;28;20026;-80
2022/06/01 00:15:12;;;;;;;1.35;1.20;;;12.50;99.90;;;;;;5016100;28;20029;-80
2022/06/01 00:17:37;;;;;;;3.08;1.42;;;12.50;99.90;;;;;;5015725;28;20081;-80
2022/06/01 00:20:04;;;;;;;1.58;1.25;;;12.50;99.90;;;;;;5015399;28;20037;-80
2022/06/01 00:22:29;;;;;;;2.05;1.27;;;12.50;99.90;;;;;;5011884;28;20089;-79
2022/06/01 00:24:55;;;;;;;1.42;1.20;;;12.50;99.90;;;;;;5014190;28;20018;-80
2022/06/01 00:27:21;;;;;;;1.73;1.23;;;12.50;99.90;;;;;;5015783;28;20457;-80
2022/06/01 00:29:46;;;;;;;1.83;1.30;;;12.50;99.90;;;;;;5016235;28;20069;-80
2022/06/01 00:32:14;;;;;;;2.55;1.17;;;12.50;99.90;;;;;;5015667;28;20375;-80
2022/06/01 00:34:44;;;;;;;1.63;1.15;;;12.50;99.90;;;;;;5015866;28;20053;-81
2022/06/01 00:37:10;;;;;;;2.40;1.30;;;12.50;99.90;;;;;;5014450;28;20368;-80
2022/06/01 00:39:36;;;;;;;2.78;1.30;;;12.50;99.90;;;;;;5014344;28;20108;-80
2022/06/01 00:42:19;;;;;;;1.75;1.20;;;12.50;99.90;;;;;;5015626;28;20026;-80
2022/06/01 00:44:46;;;;;;;2.45;1.30;;;12.50;99.90;;;;;;5020391;28;20049;-80
2022/06/01 00:47:16;;;;;;;1.60;1.20;;;12.50;99.90;;;;;;5015372;28;20064;-80
2022/06/01 00:49:46;;;;;;;1.35;1.10;;;12.60;99.90;;;;;;5018993;28;20053;-80
2022/06/01 00:52:15;;;;;;;1.90;1.10;;;12.60;99.90;;;;;;5013928;28;20483;-81
2022/06/01 00:54:41;;;;;;;1.60;1.17;;;12.60;99.90;;;;;;5014936;28;20073;-80
2022/06/01 00:57:14;;;;;;;1.17;1.00;;;12.60;99.90;;;;;;5014051;28;20022;-80
2022/06/01 00:59:44;;;;;;;2.10;1.00;;;12.60;99.90;;;;;;5030376;28;20026;-80
2022/06/01 01:02:10;;;;;;;2.80;1.20;;;12.60;99.90;;;;;;5030324;28;20533;-80
2022/06/01 01:04:39;;;;;;;1.73;1.30;;;12.60;99.90;;;;;;5014926;28;20034;-79
2022/06/01 01:07:09;;;;;;;1.73;1.30;;;12.60;99.90;;;;;;5014934;28;20022;-80
2022/06/01 01:09:35;;;;;;;2.28;1.30;;;12.60;99.90;;;;;;5014840;28;20014;-80
2022/06/01 01:12:06;;;;;;;1.92;1.30;;;12.60;99.90;;;;;;5014780;28;20120;-80
2022/06/01 01:14:35;;;;;;;2.53;1.13;;;12.60;99.90;;;;;;5014789;28;20022;-80
2022/06/01 01:17:04;;;;;;;1.65;1.48;;;12.70;99.90;;;;;;5013727;28;20022;-80
2022/06/01 01:19:34;;;;;;;2.35;1.20;;;12.70;99.90;;;;;;5014258;28;20340;-80
2022/06/01 01:22:27;;;;;;;2.03;1.40;;;12.70;99.90;;;;;;5014776;28;20014;-80
2022/06/01 01:25:20;;;;;;;2.03;1.63;;;12.70;99.90;;;;;;5014829;28;20402;-80
2022/06/01 01:27:48;;;;;;;2.65;1.65;;;12.70;99.90;;;;;;5006883;28;20062;-80
2022/06/01 01:30:32;;;;;;;2.17;1.52;;;12.70;99.90;;;;;;5014644;28;20026;-79
2022/06/01 01:33:00;;;;;;;2.03;1.48;;;12.70;99.90;;;;;;5014294;28;20033;-80
2022/06/01 01:35:26;;;;;;;3.17;1.30;;;12.60;99.90;;;;;;5014665;28;20046;-79
2022/06/01 01:37:52;;;;;;;3.70;1.40;;;12.60;99.90;;;;;;5014927;28;20509;-80
2022/06/01 01:40:17;;;;;;;2.30;1.52;;;12.60;99.90;;;;;;5014093;28;20060;-79
2022/06/01 01:42:48;;;;;;;2.97;1.50;;;12.60;99.90;;;;;;5029786;28;20034;-80
2022/06/01 01:45:20;;;;;;;3.35;1.50;;;12.60;99.90;;;;;;5014722;28;20127;-80
2022/06/01 01:47:47;;;;;;;2.72;1.60;;;12.60;99.90;;;;;;5013775;28;20050;-80
2022/06/01 01:50:13;;;;;;;1.55;1.30;;;12.60;99.90;;;;;;5013147;28;20057;-80
2022/06/01 01:52:38;;;;;;;2.13;1.38;;;12.50;99.90;;;;;;5013085;28;20049;-80
2022/06/01 01:55:13;;;;;;;2.33;1.40;;;12.50;99.90;;;;;;5012722;28;20033;-80
2022/06/01 01:57:53;;;;;;;1.83;1.40;;;12.50;99.90;;;;;;5013145;28;20018;-80
2022/06/01 02:00:24;;;;;;;1.65;1.42;;;12.50;99.90;;;;;;5012400;28;20020;-80
2022/06/01 02:03:09;;;;;;;3.30;1.45;;;12.40;99.90;;;;;;5012216;28;20057;-80
2022/06/01 02:06:11;;;;;;;2.25;1.52;;;12.40;99.90;;;;;;5011285;28;20029;-80
2022/06/01 02:08:53;;;;;;;1.92;1.63;;;12.30;99.90;;;;;;4994353;28;20141;-80
2022/06/01 02:14:35;;;;;;;2.95;1.67;;;12.30;99.90;;;;;;5013946;28;20041;-79
2022/06/01 02:17:10;;;;;;;2.85;1.67;;;12.20;99.90;;;;;;5000932;28;20093;-80
2022/06/01 02:19:47;;;;;;;1.85;1.35;;;12.20;99.90;;;;;;5014045;28;20501;-80
2022/06/01 02:22:13;;;;;;;2.78;1.60;;;12.20;99.90;;;;;;5001108;28;20549;-80
2022/06/01 02:24:40;;;;;;;4.20;1.80;;;12.20;99.90;;;;;;5013212;28;20113;-80
2022/06/01 02:27:06;;;;;;;2.88;1.70;;;12.10;99.90;;;;;;5014073;28;20025;-80
2022/06/01 02:29:43;;;;;;;4.72;1.60;;;12.10;99.90;;;;;;5013814;28;20041;-80
2022/06/01 02:32:11;;;;;;;2.63;1.60;;;12.10;99.90;;;;;;5013815;28;20100;-81
2022/06/01 02:34:38;;;;;;;2.53;1.70;;;12.10;99.90;;;;;;5012707;28;20052;-80
2022/06/01 02:37:07;;;;;;;5.35;1.80;;;12.00;99.90;;;;;;5013554;28;20026;-80
2022/06/01 02:39:36;;;;;;;3.08;1.60;;;12.00;99.90;;;;;;5012274;28;20037;-80
2022/06/01 02:42:25;;;;;;;2.50;1.50;;;12.00;99.90;;;;;;5012209;28;20113;-80
2022/06/01 02:44:53;;;;;;;2.55;1.95;;;12.00;99.90;;;;;;5012289;28;20596;-80
2022/06/01 02:47:19;;;;;;;1.90;1.50;;;11.90;99.90;;;;;;5013445;28;20022;-80
2022/06/01 02:49:44;;;;;;;2.60;1.55;;;11.90;99.90;;;;;;5013174;28;20034;-80
2022/06/01 02:52:10;;;;;;;3.92;1.80;;;11.80;99.90;;;;;;5011889;28;20036;-80
2022/06/01 02:54:37;;;;;;;5.75;2.03;;;11.80;99.90;;;;;;5013174;28;20030;-81
2022/06/01 02:57:04;;;;;;;2.45;1.67;;;11.80;99.90;;;;;;5013294;28;20033;-80
2022/06/01 02:59:29;;;;;;;2.70;1.65;;;11.70;99.90;;;;;;5011730;28;20022;-80
2022/06/01 03:01:55;;;;;;;2.15;1.60;;;11.70;99.90;;;;;;5008146;28;20026;-80
2022/06/01 03:04:20;;;;;;;3.17;1.63;;;11.70;99.90;;;;;;5010516;28;20049;-80
2022/06/01 03:06:46;;;;;;;1.92;1.50;;;11.70;99.90;;;;;;5013285;28;20041;-80
2022/06/01 03:09:13;;;;;;;5.85;1.85;;;11.60;99.90;;;;;;5012907;28;20463;-80
2022/06/01 03:11:39;;;;;;;2.42;2.00;;;11.60;99.90;;;;;;5008987;28;20038;-80
2022/06/01 03:14:07;;;;;;;2.50;1.60;;;11.50;99.90;;;;;;5005592;28;20026;-80
2022/06/01 03:16:32;;;;;;;3.45;2.08;;;11.50;99.90;;;;;;5012988;28;20045;-80
2022/06/01 03:18:58;;;;;;;3.33;2.03;;;11.50;99.90;;;;;;5012741;28;20046;-80
2022/06/01 03:21:26;;;;;;;4.72;2.10;;;11.50;99.90;;;;;;5027720;28;20026;-80
2022/06/01 03:23:52;;;;;;;2.97;1.80;;;11.50;99.90;;;;;;5013166;28;20033;-80
2022/06/01 03:26:17;;;;;;;2.75;1.90;;;11.40;99.90;;;;;;5011819;28;20038;-80
2022/06/01 03:28:43;;;;;;;3.30;2.00;;;11.40;99.90;;;;;;5011710;28;20064;-80
2022/06/01 03:31:08;;;;;;;4.63;2.22;;;11.40;99.90;;;;;;5012985;28;20324;-81
2022/06/01 03:33:36;;;;;;;3.92;1.90;;;11.40;99.90;;;;;;5012790;28;20153;-81
2022/06/01 03:36:10;;;;;;;5.82;1.98;;;11.40;99.90;;;;;;5001480;28;20076;-81
2022/06/01 03:38:38;;;;;;;4.28;2.25;;;11.40;99.90;;;;;;5012867;28;20123;-81
2022/06/01 03:41:05;;;;;;;4.53;1.90;;;11.40;99.90;;;;;;5008263;28;20026;-81
2022/06/01 03:45:55;;;;;;;4.03;1.83;;;11.40;99.90;;;;;;5005630;28;20045;-81
2022/06/01 03:46:17;;;;;;;5.90;1.90;;;11.40;99.90;;;;;;5001562;28;20465;-81
2022/06/01 03:48:45;;;;;;;4.72;2.50;;;11.40;99.90;;;;;;5012620;28;20053;-81
2022/06/01 03:51:10;;;;;;;4.53;2.25;;;11.40;99.90;;;;;;5011584;28;20022;-81
2022/06/01 03:53:38;;;;;;;4.95;2.08;;;11.50;99.90;;;;;;5012448;28;20026;-81
2022/06/01 03:56:08;;;;;;;7.95;2.38;;;11.40;99.90;;;;;;5011519;28;20029;-81
2022/06/01 03:58:36;;;;;;;5.57;2.60;;;11.40;99.90;;;;;;5012546;28;20490;-81
2022/06/01 04:01:11;;;;;;;4.65;2.20;;;11.50;99.90;;;;;;5012803;28;20076;-81
2022/06/01 04:03:36;;;;;;;5.93;2.20;;;11.50;99.90;;;;;;5012849;28;20060;-81
2022/06/01 04:06:02;;;;;;;5.60;2.20;;;11.50;99.90;;;;;;5012329;28;20057;-81
2022/06/01 04:08:27;;;;;;;4.35;2.13;;;11.50;99.90;;;;;;5012845;28;20025;-81
2022/06/01 04:10:55;;;;;;;4.88;1.90;;;11.50;99.90;;;;;;5012687;28;20081;-81
2022/06/01 04:13:28;;;;;;;3.50;2.08;;;11.60;99.90;;;;;;5016255;28;20541;-81
2022/06/01 04:15:57;;;;;;;2.88;2.00;;;11.60;99.90;;;;;;5016180;28;20036;-81
2022/06/01 04:18:41;;;;;;;5.95;1.90;;;11.60;99.90;;;;;;5015758;28;20042;-81
2022/06/01 04:21:07;;;;;;;3.60;1.40;;;11.70;99.90;;;;;;5026001;28;20419;-81
2022/06/01 04:23:35;;;;;;;3.72;1.70;;;11.70;99.90;;;;;;5014913;28;20305;-81
2022/06/01 04:26:03;;;;;;;3.83;2.03;;;11.70;99.90;;;;;;5014431;28;20076;-81
2022/06/01 04:28:29;;;;;;;3.40;1.58;;;11.80;99.90;;;;;;5012585;28;20056;-81
2022/06/01 04:30:58;;;;;;;4.03;2.10;;;11.80;99.90;;;;;;5016392;28;20030;-81
2022/06/01 04:33:26;;;;;;;4.63;2.17;;;11.90;99.90;;;;;;5016350;28;20022;-81
2022/06/01 04:35:54;;;;;;;3.30;2.10;;;12.00;99.90;;;;;;5016306;28;20072;-80
2022/06/01 04:38:20;;;;;;;7.63;2.30;;;12.10;99.90;;;;;;5016128;28;20022;-81
2022/06/01 04:40:48;;;;;;;5.07;2.33;;;12.20;99.90;;;;;;5012599;28;20088;-81
2022/06/01 04:43:17;;;;;;;5.78;1.95;;;12.30;99.90;;;;;;5027967;28;20072;-81
2022/06/01 04:45:45;;;;;;;4.35;2.25;;;12.50;99.90;;;;;;5014332;28;20058;-82
2022/06/01 04:48:11;;;;;;;4.68;1.75;;;12.60;99.90;;;;;;5015597;28;20033;-82
2022/06/01 04:50:42;;;;;;;2.67;1.70;;;12.70;99.90;;;;;;5014132;28;20164;-81
2022/06/01 04:53:09;;;;;;;3.15;1.80;;;12.90;99.90;;;;;;5015427;28;20022;-82
2022/06/01 04:55:37;;;;;;;4.10;1.52;;;13.00;99.90;;;;;;5030683;28;20031;-81
2022/06/01 04:58:03;;;;;;;4.00;1.77;;;13.20;99.90;;;;;;5014028;28;20490;-81
2022/06/01 05:00:28;;;;;;;5.10;1.80;;;13.30;99.90;;;;;;5014868;28;20033;-81
2022/06/01 05:02:54;;;;;;;3.65;1.80;;;13.40;99.90;;;;;;5015113;28;20022;-81
2022/06/01 05:05:19;;;;;;;3.35;1.70;;;13.50;99.90;;;;;;5015279;28;20101;-81
2022/06/01 05:07:48;;;;;;;3.47;1.88;;;13.60;99.90;;;;;;5011594;28;20052;-81
2022/06/01 05:10:16;;;;;;;4.82;2.17;;;13.70;99.90;;;;;;5030098;28;20026;-81
2022/06/01 05:12:44;;;;;;;4.43;1.60;;;13.80;99.90;;;;;;5009525;28;20033;-81
2022/06/01 05:15:10;;;;;;;3.30;1.60;;;13.90;99.90;;;;;;5015098;28;20076;-76
2022/06/01 05:17:38;;;;;;;2.65;1.60;;;14.10;99.90;;;;;;5015057;28;20407;-80
2022/06/01 05:20:19;;;;;;;3.80;1.77;;;14.20;99.90;;;;;;5006676;28;20466;-79
2022/06/01 05:22:45;;;;;;;2.55;1.40;;;14.30;99.90;;;;;;5011052;28;20018;-72
2022/06/01 05:25:11;;;;;;;1.98;1.67;;;14.40;99.90;;;;;;5014992;28;20534;-73
2022/06/01 05:27:37;;;;;;;3.85;1.55;;;14.60;99.90;;;;;;5014725;28;20145;-72
2022/06/01 05:30:05;;;;;;;3.20;1.52;;;14.80;99.90;;;;;;5014778;28;20026;-73
2022/06/01 05:32:31;;;;;;;3.95;1.75;;;14.90;99.90;;;;;;5014607;28;20018;-73
2022/06/01 05:34:58;;;;;;;3.08;1.67;;;14.90;99.90;;;;;;5014512;28;20065;-73
2022/06/01 05:37:23;;;;;;;4.45;1.55;;;15.00;99.90;;;;;;5014867;28;20022;-73
2022/06/01 05:39:49;;;;;;;2.88;1.50;;;15.10;99.90;;;;;;5014538;28;20067;-73
2022/06/01 05:42:17;;;;;;;5.63;1.63;;;15.10;99.90;;;;;;5014748;28;20100;-73
2022/06/01 05:44:42;;;;;;;2.40;1.80;;;15.10;99.90;;;;;;5014727;28;20132;-73
2022/06/01 05:47:08;;;;;;;3.20;1.48;;;15.20;99.90;;;;;;5014440;28;20053;-73
2022/06/01 05:49:34;;;;;;;3.05;1.58;;;15.20;99.90;;;;;;5014955;28;20080;-75
2022/06/01 05:52:00;;;;;;;4.55;1.80;;;15.20;99.90;;;;;;5014923;28;20032;-75
2022/06/01 05:54:25;;;;;;;3.05;1.67;;;15.20;99.90;;;;;;5014961;28;20475;-85
2022/06/01 05:56:51;;;;;;;3.83;1.70;;;15.40;99.90;;;;;;5014710;28;20025;-75
2022/06/01 05:59:17;;;;;;;2.75;1.50;;;15.50;99.90;;;;;;5014641;28;20037;-75
2022/06/01 06:01:43;;;;;;;2.58;1.60;;;15.60;99.90;;;;;;5014864;28;20053;-75
2022/06/01 06:04:09;;;;;;;4.25;1.88;;;15.60;99.90;;;;;;5010975;28;20072;-75
2022/06/01 06:06:34;;;;;;;4.55;1.70;;;15.60;99.90;;;;;;5010680;28;20041;-74
2022/06/01 06:09:07;;;;;;;4.57;1.83;;;15.60;99.90;;;;;;5010631;28;20120;-75
2022/06/01 06:11:36;;;;;;;3.60;1.70;;;15.60;99.90;;;;;;5003088;28;20505;-75
2022/06/01 06:14:02;;;;;;;3.30;1.70;;;15.80;99.90;;;;;;5003949;28;20033;-75
2022/06/01 06:16:31;;;;;;;2.47;1.70;;;16.00;99.90;;;;;;5012098;28;20022;-81
2022/06/01 06:18:57;;;;;;;2.70;1.52;;;16.20;99.90;;;;;;5011982;28;20057;-81
2022/06/01 06:21:28;;;;;;;4.50;1.85;;;16.30;99.90;;;;;;5009547;28;20029;-81
2022/06/01 06:24:01;;;;;;;3.80;1.60;;;16.50;99.90;;;;;;5026386;28;20030;-80
2022/06/01 06:26:27;;;;;;;2.70;1.50;;;16.70;99.90;;;;;;5025565;28;20044;-81
2022/06/01 06:28:56;;;;;;;3.78;2.03;;;16.80;99.90;;;;;;5013067;28;20026;-80
2022/06/01 06:31:21;;;;;;;5.82;2.53;;;17.00;99.90;;;;;;5011167;28;20036;-81
2022/06/01 06:33:48;;;;;;;4.80;1.90;;;17.00;99.90;;;;;;5010724;28;20426;-80
2022/06/01 06:36:14;;;;;;;3.70;2.00;;;17.20;99.90;;;;;;5008675;28;20037;-80
2022/06/01 06:38:40;;;;;;;4.82;1.60;;;17.30;99.90;;;;;;5010193;28;20038;-80
2022/06/01 06:41:07;;;;;;;3.40;1.75;;;17.40;99.90;;;;;;5011115;28;20037;-80
2022/06/01 06:43:36;;;;;;;2.88;1.75;;;17.40;99.90;;;;;;5010209;28;20137;-81
2022/06/01 06:46:05;;;;;;;5.32;1.70;;;17.50;99.90;;;;;;5010892;28;20061;-81
2022/06/01 06:48:31;;;;;;;6.38;1.80;;;17.70;99.90;;;;;;5010607;28;20030;-81
2022/06/01 06:50:58;;;;;;;3.45;1.60;;;17.70;99.90;;;;;;5010166;28;20042;-81
2022/06/01 06:53:28;;;;;;;4.03;1.90;;;17.80;99.90;;;;;;5009951;28;20040;-82
2022/06/01 06:55:58;;;;;;;5.28;2.00;;;17.90;99.90;;;;;;5026235;28;20378;-80
2022/06/01 06:58:39;;;;;;;4.05;1.70;;;18.00;99.90;;;;;;5011487;28;20022;-80
2022/06/01 07:01:05;;;;;;;6.53;1.92;;;18.10;99.90;;;;;;5011148;28;20087;-80
2022/06/01 07:03:30;;;;;;;2.92;1.73;;;18.10;99.90;;;;;;5010727;28;20982;-80
2022/06/01 07:06:14;;;;;;;4.25;1.75;;;18.30;99.90;;;;;;5012047;28;20029;-80
2022/06/01 07:08:46;;;;;;;4.75;1.98;;;18.50;99.90;;;;;;5024462;28;20486;-80
2022/06/01 07:11:14;;;;;;;5.28;1.90;;;18.50;99.90;;;;;;5011268;28;20030;-80
2022/06/01 07:13:40;;;;;;;4.15;1.60;;;18.60;99.90;;;;;;5011512;28;20026;-80
2022/06/01 07:16:10;;;;;;;3.15;1.80;;;18.50;99.90;;;;;;5011768;28;20021;-79
2022/06/01 07:18:38;;;;;;;3.75;1.45;;;18.60;99.90;;;;;;5011601;28;20459;-80
2022/06/01 07:21:03;;;;;;;3.15;1.77;;;18.50;99.90;;;;;;5011612;28;20029;-80
2022/06/01 07:23:29;;;;;;;4.05;1.70;;;18.50;99.90;;;;;;5011095;28;20026;-81
2022/06/01 07:25:54;;;;;;;2.75;1.80;;;18.60;99.90;;;;;;5010973;28;20057;-81
2022/06/01 07:28:22;;;;;;;2.67;1.55;;;18.70;99.90;;;;;;5011393;28;20049;-80
2022/06/01 07:30:56;;;;;;;2.42;1.63;;;18.70;99.90;;;;;;5011081;28;20025;-80
2022/06/01 07:33:28;;;;;;;3.97;1.60;;;18.80;99.90;;;;;;5009570;28;20022;-80
2022/06/01 07:35:57;;;;;;;4.22;1.70;;;18.80;99.90;;;;;;5011776;28;21206;-80
2022/06/01 07:43:54;;;;;;;7.05;1.80;;;18.90;99.90;;;;;;5006361;28;20029;-79
2022/06/01 07:46:19;;;;;;;4.00;1.52;;;18.80;99.90;;;;;;5024864;28;20752;-80
2022/06/01 07:48:46;;;;;;;3.40;1.80;;;18.90;99.90;;;;;;5011307;28;20110;-79
2022/06/01 07:51:13;;;;;;;3.30;1.73;;;19.00;99.90;;;;;;5011914;28;20026;-80
2022/06/01 07:53:39;;;;;;;6.18;2.00;;;19.10;99.90;;;;;;5010323;28;20034;-79
2022/06/01 07:56:05;;;;;;;2.90;1.70;;;19.20;99.90;;;;;;5012494;28;20416;-80
2022/06/01 07:58:30;;;;;;;4.07;2.13;;;19.10;99.90;;;;;;5009452;28;20068;-80
2022/06/01 08:00:56;;;;;;;3.55;1.70;;;19.30;99.90;;;;;;5009121;28;20037;-79
2022/06/01 08:03:21;;;;;;;2.92;1.50;;;19.20;99.90;;;;;;5011306;28;20104;-79
2022/06/01 08:05:47;;;;;;;2.88;1.50;;;19.30;99.90;;;;;;5017819;28;20506;-79
2022/06/01 08:08:13;;;;;;;5.13;1.80;;;19.20;99.90;;;;;;5026993;28;20438;-79
2022/06/01 08:10:39;;;;;;;3.30;1.42;;;19.30;99.90;;;;;;5011402;28;20116;-79
2022/06/01 08:13:10;;;;;;;3.00;1.58;;;19.30;99.90;;;;;;5010668;28;20052;-79
2022/06/01 08:15:45;;;;;;;4.45;1.60;;;19.40;99.90;;;;;;5012152;28;20084;-80
2022/06/01 08:18:13;;;;;;;3.35;1.60;;;19.50;99.90;;;;;;5027812;28;20823;-79
2022/06/01 08:20:39;;;;;;;4.55;1.77;;;19.60;99.90;;;;;;5014263;28;20049;-79
2022/06/01 08:23:06;;;;;;;5.22;1.52;;;19.70;99.90;;;;;;5014328;28;20033;-80
2022/06/01 08:25:32;;;;;;;3.53;1.77;;;20.00;99.90;;;;;;5013064;28;20026;-73
2022/06/01 08:27:58;;;;;;;5.60;1.70;;;20.10;99.90;;;;;;5014504;28;20038;-74
2022/06/01 08:30:25;;;;;;;3.42;1.50;;;20.20;99.90;;;;;;5014532;28;20374;-74
2022/06/01 08:32:52;;;;;;;2.80;1.83;;;20.30;99.90;;;;;;5014466;28;20025;-77
2022/06/01 08:35:22;;;;;;;4.03;1.85;;;20.40;99.90;;;;;;5014779;28;20037;-74
2022/06/01 08:37:48;;;;;;;4.13;1.50;;;20.60;99.90;;;;;;5015493;28;20026;-74
2022/06/01 08:40:18;;;;;;;3.63;1.70;;;20.60;99.90;;;;;;5015127;28;20022;-72
2022/06/01 08:43:02;;;;;;;5.55;1.65;;;20.70;99.90;;;;;;5015558;28;20033;-72
2022/06/01 08:45:29;;;;;;;3.15;1.75;;;20.60;99.90;;;;;;5015517;28;20372;-74
2022/06/01 08:47:55;;;;;;;3.15;1.70;;;20.50;99.90;;;;;;5015301;28;20848;-74
2022/06/01 08:50:30;;;;;;;3.90;1.63;;;20.50;99.90;;;;;;5014992;28;20022;-73
2022/06/01 08:52:59;;;;;;;2.50;1.50;;;20.50;99.90;;;;;;5015514;28;20084;-73
2022/06/01 08:55:27;;;;;;;5.63;1.83;;;20.60;99.90;;;;;;5016112;28;20030;-71
2022/06/01 08:58:09;;;;;;;5.22;1.58;;;20.70;99.90;;;;;;5015578;28;20018;-72
2022/06/01 09:00:42;;;;;;;3.55;1.40;;;20.70;99.90;;;;;;5015903;28;20379;-71
2022/06/01 09:03:28;;;;;;;2.65;1.63;;;20.70;99.90;;;;;;5015083;28;20537;-70
2022/06/01 09:06:04;;;;;;;3.55;1.38;;;20.90;99.90;;;;;;5015632;28;20033;-72
2022/06/01 09:08:33;;;;;;;3.58;1.77;;;21.00;99.90;;;;;;5016141;28;20368;-71
2022/06/01 09:11:11;;;;;;;3.50;1.45;;;21.00;99.90;;;;;;5014800;28;20126;-72
2022/06/01 09:13:53;;;;;;;5.68;1.60;;;21.00;99.90;;;;;;5015190;28;20022;-73
2022/06/01 09:16:41;;;;;;;4.03;1.50;;;21.10;99.90;;;;;;5015100;28;20080;-73
2022/06/01 09:19:16;;;;;;;5.55;1.80;;;21.20;99.90;;;;;;5014947;28;20054;-73
2022/06/01 09:24:34;;;;;;;6.65;1.67;;;21.30;99.90;;;;;;5015527;28;20028;-73
2022/06/01 09:27:06;;;;;;;5.03;1.92;;;21.20;99.90;;;;;;5014895;28;20036;-73
2022/06/01 09:29:35;;;;;;;7.60;2.20;;;21.10;99.90;;;;;;5014810;28;20416;-74
2022/06/01 09:32:04;;;;;;;3.60;1.45;;;21.20;99.90;;;;;;5014800;28;20026;-73
2022/06/01 09:34:47;;;;;;;4.47;1.80;;;21.40;99.90;;;;;;5014280;28;20050;-73
2022/06/01 09:37:22;;;;;;;6.28;1.63;;;21.50;99.90;;;;;;5015247;28;20041;-73
2022/06/01 09:40:01;;;;;;;3.63;1.60;;;21.60;99.90;;;;;;5012545;28;20466;-76
2022/06/01 09:42:36;;;;;;;4.82;1.48;;;22.10;99.90;;;;;;5010198;28;20036;-76
2022/06/01 09:45:25;;;;;;;3.20;1.38;;;22.40;99.90;;;;;;5007739;28;20059;-76
2022/06/01 09:47:52;;;;;;;4.82;1.35;;;22.50;99.90;;;;;;5020003;28;20041;-77
2022/06/01 09:50:26;;;;;;;8.27;1.40;;;22.50;99.90;;;;;;5009367;28;20037;-77
2022/06/01 09:53:00;;;;;;;5.05;1.60;;;22.70;99.90;;;;;;5007509;28;20026;-76
2022/06/01 09:55:29;;;;;;;7.43;1.45;;;22.70;99.90;;;;;;5010378;28;20364;-78
2022/06/01 09:58:04;;;;;;;6.47;1.83;;;23.00;99.90;;;;;;5010708;28;20017;-78
2022/06/01 10:06:26;;;;;;;6.57;1.60;;;23.00;99.90;;;;;;5007958;28;20049;-78
2022/06/01 10:09:06;;;;;;;3.00;1.20;;;22.80;99.90;;;;;;5013368;28;20133;-78
2022/06/01 10:11:39;;;;;;;5.55;1.42;;;22.60;99.10;;;;;;4995428;28;20029;-78
2022/06/01 10:14:35;;;;;;;2.08;1.20;;;22.50;99.90;;;;;;5007537;28;20030;-78
2022/06/01 10:17:36;;;;;;;;;;;22.50;99.90;;;;;;4999527;28;20045;-78
2022/06/01 10:20:13;;;;;;;2.50;1.27;;;22.50;99.90;;;;;;4978741;28;19929;-78
2022/06/01 10:22:58;;;;;;;1.80;1.25;;;22.60;99.90;;;;;;5017273;28;20092;-78
2022/06/01 10:25:47;;;;;;;5.82;1.40;;;22.70;98.20;;;;;;5006803;28;20464;-78
2022/06/01 10:28:27;;;;;;;5.43;1.40;;;22.70;98.80;;;;;;5008184;28;20096;-78
2022/06/01 10:31:00;;;;;;;1.95;1.20;;;22.60;96.60;;;;;;5004389;28;20042;-78
2022/06/01 10:33:44;;;;;;;3.70;1.40;;;22.40;97.60;;;;;;5006462;28;20030;-78
2022/06/01 10:36:39;;;;;;;3.80;1.50;;;22.50;98.00;;;;;;5008206;28;20018;-78
2022/06/01 10:39:09;;;;;;;;;;;22.50;99.70;;;;;;5009164;28;20032;-78
2022/06/01 10:41:46;;;;;;;4.53;1.27;;;22.70;98.80;;;;;;5025787;28;20380;-78
2022/06/01 10:44:41;;;;;;;4.10;1.20;;;22.80;97.30;;;;;;5016039;28;20425;-78
2022/06/01 10:47:28;;;;;;;4.85;1.50;;;22.80;97.40;;;;;;5007890;28;20041;-78
2022/06/01 10:50:13;;;;;;;3.58;1.30;;;23.00;95.90;;;;;;5012314;28;20030;-78
2022/06/01 10:52:48;;;;;;;3.70;1.60;;;23.20;96.10;;;;;;5011872;28;20061;-77
2022/06/01 10:55:24;;;;;;;3.97;1.60;;;23.50;95.10;;;;;;5013561;28;20064;-78
2022/06/01 10:57:50;;;;;;;4.57;1.33;;;23.70;95.30;;;;;;5016069;28;20120;-78
2022/06/01 11:00:22;;;;;;;2.95;1.40;;;23.90;97.30;;;;;;5014620;28;20022;-77
2022/06/01 11:03:15;;;;;;;3.60;1.48;;;24.30;96.00;;;;;;5001764;28;20026;-78
2022/06/01 11:06:00;;;;;;;7.97;1.52;;;24.60;94.60;;;;;;5013212;28;20538;-79
2022/06/01 11:08:39;;;;;;;3.47;1.60;;;24.80;93.70;;;;;;5000503;28;20026;-78
2022/06/01 11:11:13;;;;;;;4.85;1.20;;;25.00;93.30;;;;;;5008853;28;20095;-78
2022/06/01 11:13:55;;;;;;;2.15;1.30;;;25.10;93.40;;;;;;5008117;28;20395;-77
2022/06/01 11:16:46;;;;;;;2.42;1.02;;;25.40;92.90;;;;;;5008658;28;20021;-78
2022/06/01 11:19:28;;;;;;;3.83;1.42;;;25.50;90.50;;;;;;5000883;28;20503;-78
2022/06/01 11:22:12;;;;;;;3.72;1.50;;;25.20;90.10;;;;;;5011098;28;20093;-79
2022/06/01 11:25:15;;;;;;;3.63;1.50;;;24.90;91.40;;;;;;5014037;28;20033;-78
2022/06/01 11:27:58;;;;;;;2.72;1.35;;;24.60;91.40;;;;;;5011511;28;20034;-77
2022/06/01 11:30:27;;;;;;;3.70;1.40;;;24.60;91.80;;;;;;5011606;28;20022;-77
2022/06/01 11:33:24;;;;;;;4.15;1.58;;;24.70;94.10;;;;;;5013048;28;20026;-78
2022/06/01 11:35:57;;;;;;;2.58;1.27;;;24.90;91.40;;;;;;5005665;28;20028;-77
2022/06/01 11:38:43;;;;;;;3.40;1.40;;;24.90;93.00;;;;;;5003859;28;20439;-77
2022/06/01 11:41:16;;;;;;;2.92;1.48;;;25.10;92.50;;;;;;4995559;28;20019;-76
2022/06/01 11:43:44;;;;;;;2.53;1.30;;;25.30;90.60;;;;;;5009666;28;20044;-77
2022/06/01 11:46:13;;;;;;;7.20;1.48;;;25.50;90.70;;;;;;5011849;28;20368;-76
2022/06/01 11:48:51;;;;;;;4.78;1.30;;;25.40;90.70;;;;;;5013198;28;20363;-76
2022/06/01 11:51:25;;;;;;;3.67;1.35;;;25.10;90.80;;;;;;5013091;28;20038;-77
2022/06/01 11:54:05;;;;;;;6.35;1.40;;;24.80;90.60;;;;;;5012840;28;20025;-77
2022/06/01 11:56:43;;;;;;;2.72;1.25;;;24.70;91.20;;;;;;5013688;28;20148;-77
2022/06/01 11:59:23;;;;;;;4.55;1.27;;;24.80;92.70;;;;;;5011022;28;20032;-77
2022/06/01 12:02:17;;;;;;;3.90;1.35;;;25.20;91.50;;;;;;5011517;28;20108;-77
2022/06/01 12:05:02;;;;;;;3.95;1.48;;;25.40;92.20;;;;;;5013397;28;20026;-76
2022/06/01 12:07:37;;;;;;;5.38;1.48;;;25.70;88.30;;;;;;5013056;28;20753;-77
2022/06/01 12:10:18;;;;;;;3.38;1.20;;;25.60;89.90;;;;;;5015580;28;20498;-76
2022/06/01 12:13:22;;;;;;;3.80;1.30;;;25.70;91.30;;;;;;5009516;28;20021;-75
2022/06/01 12:16:23;;;;;;;3.47;1.42;;;26.10;90.50;;;;;;4982511;28;20034;-75
2022/06/01 12:19:01;;;;;;;5.78;1.20;;;26.70;86.60;;;;;;5006282;28;20108;-75
2022/06/01 12:21:42;;;;;;;4.10;1.63;;;26.90;87.20;;;;;;5012608;28;20025;-75
2022/06/01 12:30:13;;;;;;;2.42;1.15;;;26.30;83.70;;;;;;5015964;28;20087;-73
2022/06/01 12:32:58;;;;;;;3.57;1.40;;;25.90;86.10;;;;;;5010402;28;20065;-72
2022/06/01 12:35:24;;;;;;;;;;;25.50;86.70;;;;;;5006394;28;20492;-72
2022/06/01 12:37:57;;;;;;;4.53;1.50;;;25.20;90.70;;;;;;5006716;28;19909;-72
2022/06/01 12:40:24;;;;;;;2.75;1.23;;;25.00;90.60;;;;;;5007121;28;20034;-73
2022/06/01 12:42:52;;;;;;;4.05;1.83;;;24.90;89.60;;;;;;5007243;28;20092;-73
2022/06/01 12:45:21;;;;;;;5.28;1.40;;;24.70;88.30;;;;;;5006516;28;20108;-72
2022/06/01 12:48:09;;;;;;;5.35;1.27;;;24.90;88.30;;;;;;5010847;28;20022;-72
2022/06/01 12:51:01;;;;;;;3.33;1.20;;;25.10;90.00;;;;;;5010821;28;20046;-72
2022/06/01 12:53:46;;;;;;;3.65;1.42;;;25.10;85.40;;;;;;5012021;28;20116;-73
2022/06/01 12:56:27;;;;;;;3.42;1.40;;;24.70;87.50;;;;;;5012558;28;20034;-75
2022/06/01 12:58:54;;;;;;;11.27;1.70;;;24.30;88.00;;;;;;5013632;28;20025;-74
2022/06/01 13:01:23;;;;;;;2.08;1.30;;;24.00;89.40;;;;;;5030998;28;20376;-74
2022/06/01 13:03:50;;;;;;;3.97;1.30;;;23.80;89.00;;;;;;5015769;28;20032;-74
2022/06/01 13:06:23;;;;;;;5.47;1.50;;;23.80;89.10;;;;;;5015878;28;20025;-75
2022/06/01 13:09:08;;;;;;;3.30;1.77;;;23.70;90.30;;;;;;5015716;28;20026;-74
2022/06/01 13:11:34;;;;;;;8.43;1.50;;;23.60;90.20;;;;;;5015763;28;20387;-74
2022/06/01 13:14:06;;;;;;;5.80;1.40;;;23.50;90.20;;;;;;5015673;28;20539;-75
2022/06/01 13:16:39;;;;;;;3.90;1.70;;;23.40;90.10;;;;;;5015580;28;20030;-73
2022/06/01 13:19:25;;;;;;;2.63;1.20;;;23.50;89.80;;;;;;5015365;28;20064;-73
2022/06/01 13:21:56;;;;;;;9.35;1.60;;;23.40;89.70;;;;;;5015559;28;20101;-74
2022/06/01 13:24:25;;;;;;;5.75;1.63;;;23.30;92.00;;;;;;5030638;28;20023;-75
2022/06/01 13:26:53;;;;;;;5.05;1.40;;;23.30;92.90;;;;;;5015484;28;20072;-74
2022/06/01 13:29:26;;;;;;;2.90;1.20;;;23.40;90.30;;;;;;5015213;28;20080;-75
2022/06/01 13:32:02;;;;;;;8.88;1.65;;;23.50;90.80;;;;;;5015298;28;20034;-74
2022/06/01 13:34:37;;;;;;;5.93;1.50;;;23.60;92.60;;;;;;5015075;28;20032;-74